sensor_id;sensor_type;location;lat;lon;timestamp;pressure;altitude;pressure_sealevel;temperature;humidity
53514;BME280;39768;54.148;12.174;2023-10-08T06:22:23;102236.00;;;8.56;87.35
53514;BME280;39768;54.148;12.174;2023-10-08T06:52:45;102288.91;;;9.84;79.23
53514;BME280;39768;54.148;12.174;2023-10-08T07:57:56;102386.56;;;12.68;50.40
53514;BME280;39768;54.148;12.174;2023-10-08T08:02:49;102387.78;;;13.01;48.56
53514;BME280;39768;54.148;12.174;2023-10-08T09:57:34;102513.13;;;11.74;68.65
53514;BME280;39768;54.148;12.174;2023-10-08T10:36:34;102529.38;;;12.36;54.99
53514;BME280;39768;54.148;12.174;2023-10-08T10:40:36;102530.66;;;12.73;55.15
53514;BME280;39768;54.148;12.174;2023-10-08T10:44:43;102532.69;;;12.53;56.12
53514;BME280;39768;54.148;12.174;2023-10-08T10:48:46;102528.19;;;12.53;56.93
53514;BME280;39768;54.148;12.174;2023-10-08T10:53:07;102528.41;;;12.38;56.59
53514;BME280;39768;54.148;12.174;2023-10-08T10:57:24;102540.22;;;12.91;52.94
53514;BME280;39768;54.148;12.174;2023-10-08T11:02:39;102545.47;;;12.36;51.63
53514;BME280;39768;54.148;12.174;2023-10-08T11:07:20;102535.81;;;12.21;54.78
53514;BME280;39768;54.148;12.174;2023-10-08T11:16:17;102547.72;;;12.68;50.80
53514;BME280;39768;54.148;12.174;2023-10-08T11:21:42;102555.75;;;13.80;48.62
53514;BME280;39768;54.148;12.174;2023-10-08T11:27:11;102557.00;;;13.07;50.69
53514;BME280;39768;54.148;12.174;2023-10-08T11:32:41;102553.56;;;12.33;54.04
53514;BME280;39768;54.148;12.174;2023-10-08T11:43:53;102540.22;;;12.91;54.45
53514;BME280;39768;54.148;12.174;2023-10-08T12:53:34;102507.06;;;13.92;43.82
53514;BME280;39768;54.148;12.174;2023-10-08T12:57:37;102513.69;;;14.19;41.73
53514;BME280;39768;54.148;12.174;2023-10-08T13:01:40;102509.25;;;12.67;46.44
53514;BME280;39768;54.148;12.174;2023-10-08T13:05:43;102501.19;;;12.01;46.86
53514;BME280;39768;54.148;12.174;2023-10-08T13:09:45;102500.31;;;11.10;45.78
53514;BME280;39768;54.148;12.174;2023-10-08T13:13:52;102507.50;;;11.04;46.91
53514;BME280;39768;54.148;12.174;2023-10-08T13:17:54;102510.88;;;11.27;46.10
53514;BME280;39768;54.148;12.174;2023-10-08T13:21:57;102530.22;;;11.63;45.15
53514;BME280;39768;54.148;12.174;2023-10-08T13:25:59;102522.50;;;11.25;43.61
53514;BME280;39768;54.148;12.174;2023-10-08T13:30:07;102530.00;;;11.82;43.08
53514;BME280;39768;54.148;12.174;2023-10-08T13:34:10;102539.97;;;12.45;42.27
53514;BME280;39768;54.148;12.174;2023-10-08T13:38:15;102538.50;;;12.85;42.00
53514;BME280;39768;54.148;12.174;2023-10-08T13:42:17;102546.56;;;12.85;41.29
53514;BME280;39768;54.148;12.174;2023-10-08T13:46:22;102541.78;;;13.07;42.00
53514;BME280;39768;54.148;12.174;2023-10-08T13:50:24;102540.78;;;13.11;42.76
53514;BME280;39768;54.148;12.174;2023-10-08T13:54:26;102560.00;;;12.87;41.62
53514;BME280;39768;54.148;12.174;2023-10-08T13:58:31;102562.88;;;12.73;43.29
53514;BME280;39768;54.148;12.174;2023-10-08T14:02:35;102561.41;;;12.49;42.32
53514;BME280;39768;54.148;12.174;2023-10-08T14:06:40;102568.56;;;12.50;42.85
53514;BME280;39768;54.148;12.174;2023-10-08T14:10:44;102566.47;;;11.02;42.52
53514;BME280;39768;54.148;12.174;2023-10-08T14:14:46;102569.09;;;12.06;41.99
53514;BME280;39768;54.148;12.174;2023-10-08T14:18:50;102561.88;;;12.11;42.85
53514;BME280;39768;54.148;12.174;2023-10-08T14:22:55;102563.66;;;12.12;43.00
53514;BME280;39768;54.148;12.174;2023-10-08T14:26:59;102567.44;;;11.93;42.89
53514;BME280;39768;54.148;12.174;2023-10-08T14:31:04;102570.00;;;12.05;44.35
53514;BME280;39768;54.148;12.174;2023-10-08T14:35:06;102570.47;;;11.56;44.47
53514;BME280;39768;54.148;12.174;2023-10-08T14:39:26;102565.25;;;11.43;43.85
53514;BME280;39768;54.148;12.174;2023-10-08T14:43:49;102561.84;;;11.21;44.23
53514;BME280;39768;54.148;12.174;2023-10-08T14:47:55;102562.06;;;11.93;44.55
53514;BME280;39768;54.148;12.174;2023-10-08T14:51:58;102564.09;;;11.73;45.77
53514;BME280;39768;54.148;12.174;2023-10-08T14:56:01;102564.75;;;11.93;46.05
53514;BME280;39768;54.148;12.174;2023-10-08T15:00:06;102558.47;;;11.97;45.81
53514;BME280;39768;54.148;12.174;2023-10-08T15:04:08;102557.72;;;11.83;46.30
53514;BME280;39768;54.148;12.174;2023-10-08T15:08:13;102555.75;;;11.01;47.07
53514;BME280;39768;54.148;12.174;2023-10-08T15:12:16;102560.44;;;11.78;47.71
53514;BME280;39768;54.148;12.174;2023-10-08T15:16:20;102553.34;;;11.76;46.64
53514;BME280;39768;54.148;12.174;2023-10-08T15:20:24;102557.72;;;11.84;45.84
53514;BME280;39768;54.148;12.174;2023-10-08T15:24:25;102548.81;;;11.81;46.47
53514;BME280;39768;54.148;12.174;2023-10-08T15:28:27;102552.50;;;11.71;47.04
53514;BME280;39768;54.148;12.174;2023-10-08T15:32:29;102542.63;;;11.76;46.91
53514;BME280;39768;54.148;12.174;2023-10-08T15:36:30;102535.53;;;11.69;47.09
53514;BME280;39768;54.148;12.174;2023-10-08T15:40:33;102524.63;;;10.88;48.93
53514;BME280;39768;54.148;12.174;2023-10-08T15:44:35;102519.81;;;11.29;47.76
53514;BME280;39768;54.148;12.174;2023-10-08T15:48:37;102514.44;;;11.28;48.46
53514;BME280;39768;54.148;12.174;2023-10-08T15:52:39;102510.47;;;10.67;51.13
53514;BME280;39768;54.148;12.174;2023-10-08T15:56:41;102508.03;;;10.15;52.63
53514;BME280;39768;54.148;12.174;2023-10-08T16:00:43;102506.94;;;10.59;52.79
53514;BME280;39768;54.148;12.174;2023-10-08T16:04:44;102511.50;;;10.42;56.08
53514;BME280;39768;54.148;12.174;2023-10-08T16:08:47;102512.22;;;10.71;56.60
53514;BME280;39768;54.148;12.174;2023-10-08T16:12:49;102500.41;;;10.98;57.28
53514;BME280;39768;54.148;12.174;2023-10-08T16:16:51;102502.13;;;11.04;58.27
53514;BME280;39768;54.148;12.174;2023-10-08T16:20:52;102507.59;;;10.95;59.68
53514;BME280;39768;54.148;12.174;2023-10-08T16:24:54;102513.84;;;10.94;61.17
53514;BME280;39768;54.148;12.174;2023-10-08T16:41:54;102505.34;;;10.20;60.46
53514;BME280;39768;54.148;12.174;2023-10-08T16:53:15;102499.22;;;9.89;62.49
53514;BME280;39768;54.148;12.174;2023-10-08T16:58:25;102503.69;;;9.89;63.09
53514;BME280;39768;54.148;12.174;2023-10-08T17:09:35;102495.72;;;9.72;70.42
53514;BME280;39768;54.148;12.174;2023-10-08T18:23:35;102446.56;;;7.80;75.13
53514;BME280;39768;54.148;12.174;2023-10-08T18:27:37;102438.19;;;7.11;78.18
53514;BME280;39768;54.148;12.174;2023-10-08T18:31:42;102437.53;;;6.38;85.33
53514;BME280;39768;54.148;12.174;2023-10-08T18:35:44;102441.88;;;6.31;87.67
53514;BME280;39768;54.148;12.174;2023-10-08T18:39:46;102441.78;;;6.21;88.20
53514;BME280;39768;54.148;12.174;2023-10-08T18:43:54;102437.47;;;6.34;86.27
53514;BME280;39768;54.148;12.174;2023-10-08T18:47:56;102428.38;;;6.10;87.89
53514;BME280;39768;54.148;12.174;2023-10-08T18:51:58;102427.66;;;6.26;85.96
53514;BME280;39768;54.148;12.174;2023-10-08T18:56:07;102424.50;;;6.67;83.53
53514;BME280;39768;54.148;12.174;2023-10-08T19:00:09;102400.59;;;6.70;82.58
53514;BME280;39768;54.148;12.174;2023-10-08T19:04:12;102406.94;;;6.84;79.61
53514;BME280;39768;54.148;12.174;2023-10-08T19:08:15;102413.16;;;6.85;79.60
53514;BME280;39768;54.148;12.174;2023-10-08T19:12:17;102415.19;;;6.21;82.66
53514;BME280;39768;54.148;12.174;2023-10-08T19:16:18;102420.72;;;6.44;81.36
53514;BME280;39768;54.148;12.174;2023-10-08T19:20:22;102412.72;;;6.39;81.47
53514;BME280;39768;54.148;12.174;2023-10-08T19:24:24;102396.91;;;5.71;84.36
53514;BME280;39768;54.148;12.174;2023-10-08T19:28:26;102391.38;;;6.33;81.46
53514;BME280;39768;54.148;12.174;2023-10-08T19:32:27;102373.72;;;6.38;81.25
53514;BME280;39768;54.148;12.174;2023-10-08T19:36:30;102392.72;;;6.82;77.52
53514;BME280;39768;54.148;12.174;2023-10-08T19:40:36;102410.34;;;6.71;75.86
53514;BME280;39768;54.148;12.174;2023-10-08T19:44:38;102412.13;;;6.72;75.29
53514;BME280;39768;54.148;12.174;2023-10-08T19:48:41;102383.56;;;6.50;75.18
53514;BME280;39768;54.148;12.174;2023-10-08T19:52:44;102374.69;;;6.49;76.73
53514;BME280;39768;54.148;12.174;2023-10-08T19:56:45;102382.72;;;6.58;75.82
53514;BME280;39768;54.148;12.174;2023-10-08T20:00:48;102393.38;;;6.55;75.81
53514;BME280;39768;54.148;12.174;2023-10-08T20:04:49;102383.63;;;6.56;75.14
53514;BME280;39768;54.148;12.174;2023-10-08T20:08:51;102379.13;;;6.49;75.55
53514;BME280;39768;54.148;12.174;2023-10-08T20:12:53;102374.09;;;5.88;78.63
53514;BME280;39768;54.148;12.174;2023-10-08T20:16:55;102376.28;;;6.27;75.92
53514;BME280;39768;54.148;12.174;2023-10-08T20:20:57;102368.00;;;5.97;77.32
53514;BME280;39768;54.148;12.174;2023-10-08T20:24:59;102361.41;;;6.51;76.62
53514;BME280;39768;54.148;12.174;2023-10-08T20:29:00;102358.78;;;6.54;76.16
53514;BME280;39768;54.148;12.174;2023-10-08T20:33:03;102344.31;;;6.23;77.71
53514;BME280;39768;54.148;12.174;2023-10-08T20:37:05;102360.03;;;5.97;75.52
53514;BME280;39768;54.148;12.174;2023-10-08T20:41:15;102351.31;;;6.12;72.85
53514;BME280;39768;54.148;12.174;2023-10-08T20:45:18;102349.16;;;6.71;69.29
53514;BME280;39768;54.148;12.174;2023-10-08T20:49:21;102330.72;;;6.95;68.75
53514;BME280;39768;54.148;12.174;2023-10-08T20:53:23;102311.28;;;7.12;68.66
53514;BME280;39768;54.148;12.174;2023-10-08T20:57:26;102283.72;;;6.99;71.76
53514;BME280;39768;54.148;12.174;2023-10-08T21:01:31;102274.78;;;6.83;70.93
53514;BME280;39768;54.148;12.174;2023-10-08T21:05:35;102285.50;;;6.97;66.80
53514;BME280;39768;54.148;12.174;2023-10-08T21:09:39;102279.47;;;7.45;64.09
53514;BME280;39768;54.148;12.174;2023-10-08T21:13:40;102286.56;;;7.42;61.59
53514;BME280;39768;54.148;12.174;2023-10-08T21:17:42;102265.25;;;7.40;60.16
53514;BME280;39768;54.148;12.174;2023-10-08T21:21:44;102241.25;;;7.28;56.85
53514;BME280;39768;54.148;12.174;2023-10-08T21:25:46;102233.19;;;7.11;54.05
53514;BME280;39768;54.148;12.174;2023-10-08T21:29:48;102236.81;;;7.27;52.93
53514;BME280;39768;54.148;12.174;2023-10-08T21:33:50;102240.38;;;7.27;52.11
53514;BME280;39768;54.148;12.174;2023-10-08T21:37:52;102237.72;;;7.29;51.18
53514;BME280;39768;54.148;12.174;2023-10-08T21:41:54;102227.84;;;7.08;51.13
53514;BME280;39768;54.148;12.174;2023-10-08T21:45:57;102219.06;;;7.30;50.40
53514;BME280;39768;54.148;12.174;2023-10-08T21:49:59;102227.06;;;7.36;50.26
53514;BME280;39768;54.148;12.174;2023-10-08T21:54:01;102244.88;;;7.65;49.48
53514;BME280;39768;54.148;12.174;2023-10-08T21:58:02;102229.75;;;7.49;49.43
53514;BME280;39768;54.148;12.174;2023-10-08T22:02:04;102234.22;;;7.77;48.85
53514;BME280;39768;54.148;12.174;2023-10-08T22:06:07;102248.44;;;7.64;48.87
53514;BME280;39768;54.148;12.174;2023-10-08T22:10:10;102239.56;;;7.66;50.14
53514;BME280;39768;54.148;12.174;2023-10-08T22:14:12;102243.97;;;7.63;51.21
53514;BME280;39768;54.148;12.174;2023-10-08T22:18:16;102240.50;;;7.88;50.80
53514;BME280;39768;54.148;12.174;2023-10-08T22:22:31;102244.91;;;8.07;50.48
53514;BME280;39768;54.148;12.174;2023-10-08T22:26:34;102238.72;;;8.05;50.53
53514;BME280;39768;54.148;12.174;2023-10-08T22:30:44;102245.81;;;8.13;49.76
53514;BME280;39768;54.148;12.174;2023-10-08T22:34:51;102241.38;;;7.87;50.00
53514;BME280;39768;54.148;12.174;2023-10-08T22:39:12;102224.47;;;7.70;50.95
53514;BME280;39768;54.148;12.174;2023-10-08T22:43:14;102211.16;;;7.73;52.43
53514;BME280;39768;54.148;12.174;2023-10-08T22:47:17;102204.94;;;7.82;52.13
53514;BME280;39768;54.148;12.174;2023-10-08T22:51:22;102198.72;;;7.83;53.96
53514;BME280;39768;54.148;12.174;2023-10-08T22:55:27;102196.03;;;7.70;53.68
53514;BME280;39768;54.148;12.174;2023-10-08T22:59:28;102173.81;;;7.40;54.30
53514;BME280;39768;54.148;12.174;2023-10-08T23:03:31;102184.50;;;7.70;54.62
53514;BME280;39768;54.148;12.174;2023-10-08T23:07:33;102168.50;;;7.79;54.61
53514;BME280;39768;54.148;12.174;2023-10-08T23:11:35;102175.59;;;7.95;54.97
53514;BME280;39768;54.148;12.174;2023-10-08T23:15:37;102172.06;;;7.81;55.12
53514;BME280;39768;54.148;12.174;2023-10-08T23:19:39;102161.41;;;7.81;55.94
53514;BME280;39768;54.148;12.174;2023-10-08T23:23:42;102156.94;;;7.38;56.61
53514;BME280;39768;54.148;12.174;2023-10-08T23:27:44;102153.44;;;7.75;55.96
53514;BME280;39768;54.148;12.174;2023-10-08T23:31:46;102138.31;;;7.66;56.13
53514;BME280;39768;54.148;12.174;2023-10-08T23:35:50;102132.09;;;7.70;56.00
53514;BME280;39768;54.148;12.174;2023-10-08T23:39:52;102129.41;;;7.51;57.15
53514;BME280;39768;54.148;12.174;2023-10-08T23:43:57;102109.88;;;7.49;59.79
53514;BME280;39768;54.148;12.174;2023-10-08T23:47:59;102110.75;;;7.80;61.04
53514;BME280;39768;54.148;12.174;2023-10-08T23:52:20;102098.34;;;7.50;64.11
53514;BME280;39768;54.148;12.174;2023-10-08T23:56:34;102101.00;;;7.68;63.09
